Time;durP1;ratioP1;P1;durP2;ratioP2;P2;SDS_P1;SDS_P2;PMS_P1;PMS_P2;Temp;Humidity;BMP_temperature;BMP_pressure;BME280_temperature;BME280_humidity;BME280_pressure;Samples;Min_cycle;Max_cycle;Signal;HPM_P1;HPM_P2
2023/01/12 00:00:55;;;;;;;12.80;6.93;;;;;;;;;;6273580;22;20019;-76
2023/01/12 00:03:20;;;;;;;12.07;6.93;;;;;;;;;;6273500;22;20016;-77
2023/01/12 00:05:46;;;;;;;14.18;8.70;;;;;;;;;;6273647;22;19996;-77
2023/01/12 00:08:11;;;;;;;11.02;7.07;;;;;;;;;;6275164;22;20003;-77
2023/01/12 00:10:36;;;;;;;11.63;7.53;;;;;;;;;;6274743;22;20337;-75
2023/01/12 00:13:02;;;;;;;12.00;7.50;;;;;;;;;;6273741;22;20000;-76
2023/01/12 00:18:11;;;;;;;13.30;7.78;;;;;;;;;;6274890;22;20014;-77
2023/01/12 00:20:37;;;;;;;12.23;7.53;;;;;;;;;;6275241;22;20003;-77
2023/01/12 00:23:02;;;;;;;15.10;7.28;;;;;;;;;;6274226;22;20086;-77
2023/01/12 00:25:27;;;;;;;11.13;6.93;;;;;;;;;;6275047;22;20003;-77
2023/01/12 00:27:53;;;;;;;11.50;6.68;;;;;;;;;;6275191;22;19996;-77
2023/01/12 00:30:18;;;;;;;11.50;6.53;;;;;;;;;;6274688;22;20004;-76
2023/01/12 00:32:44;;;;;;;8.73;5.53;;;;;;;;;;6275073;22;20084;-77
2023/01/12 00:35:09;;;;;;;12.80;5.90;;;;;;;;;;6274954;22;20000;-77
2023/01/12 00:37:35;;;;;;;10.63;5.82;;;;;;;;;;6247884;22;20038;-77
2023/01/12 00:40:00;;;;;;;11.40;6.60;;;;;;;;;;6273525;22;19998;-77
2023/01/12 00:45:23;;;;;;;9.63;6.13;;;;;;;;;;6252766;22;20032;-75
2023/01/12 00:47:49;;;;;;;10.85;6.80;;;;;;;;;;6250401;22;20026;-78
2023/01/12 00:50:14;;;;;;;10.75;6.90;;;;;;;;;;6248123;22;20006;-76
2023/01/12 00:52:40;;;;;;;12.55;7.22;;;;;;;;;;6274528;22;20418;-78
2023/01/12 00:55:05;;;;;;;14.02;7.20;;;;;;;;;;6247558;22;20011;-78
2023/01/12 00:57:31;;;;;;;10.15;6.60;;;;;;;;;;6222455;22;20007;-78
2023/01/12 00:59:58;;;;;;;9.90;6.57;;;;;;;;;;6274731;22;20078;-78
2023/01/12 01:02:24;;;;;;;10.85;6.90;;;;;;;;;;6274380;22;20006;-78
2023/01/12 01:04:50;;;;;;;9.25;5.95;;;;;;;;;;6274466;22;20004;-78
2023/01/12 01:07:16;;;;;;;8.38;5.80;;;;;;;;;;6248182;22;20479;-78
2023/01/12 01:09:42;;;;;;;9.98;5.95;;;;;;;;;;6274512;22;20418;-78
2023/01/12 01:12:07;;;;;;;10.38;6.75;;;;;;;;;;6274813;22;20000;-78
2023/01/12 01:14:32;;;;;;;11.13;6.63;;;;;;;;;;6274544;22;20027;-78
2023/01/12 01:16:58;;;;;;;12.95;7.40;;;;;;;;;;6274754;22;20046;-79
2023/01/12 01:19:23;;;;;;;11.23;7.18;;;;;;;;;;6274646;22;20053;-78
2023/01/12 01:21:49;;;;;;;10.48;6.00;;;;;;;;;;6274368;22;20000;-79
2023/01/12 01:24:15;;;;;;;11.07;6.68;;;;;;;;;;6247836;22;20077;-78
2023/01/12 01:26:40;;;;;;;12.18;6.75;;;;;;;;;;6247172;22;20426;-78
2023/01/12 01:29:06;;;;;;;11.40;7.18;;;;;;;;;;6247668;22;20014;-78
2023/01/12 01:31:31;;;;;;;13.70;8.43;;;;;;;;;;6274820;22;20032;-79
2023/01/12 01:33:57;;;;;;;13.68;8.43;;;;;;;;;;6247861;22;20336;-79
2023/01/12 01:36:22;;;;;;;12.32;7.78;;;;;;;;;;6249021;22;20430;-78
2023/01/12 01:38:48;;;;;;;15.15;8.35;;;;;;;;;;6249205;22;20371;-78
2023/01/12 01:41:27;;;;;;;14.30;7.97;;;;;;;;;;6198772;22;20014;-78
2023/01/12 01:44:22;;;;;;;13.02;8.15;;;;;;;;;;6270796;22;20008;-79
2023/01/12 01:46:49;;;;;;;16.00;8.27;;;;;;;;;;6229126;22;20008;-78
2023/01/12 01:49:30;;;;;;;12.88;7.53;;;;;;;;;;6275201;22;20103;-78
2023/01/12 01:51:56;;;;;;;;;;;;;;;;;;6276010;22;20028;-79
2023/01/12 01:54:21;;;;;;;10.77;6.45;;;;;;;;;;6275391;22;20264;-78
2023/01/12 01:56:47;;;;;;;11.07;6.70;;;;;;;;;;6249248;22;20000;-78
2023/01/12 01:59:17;;;;;;;10.77;6.20;;;;;;;;;;6276556;22;20011;-78
2023/01/12 02:01:43;;;;;;;12.40;6.68;;;;;;;;;;6274872;22;20472;-78
2023/01/12 02:04:08;;;;;;;12.48;6.38;;;;;;;;;;6274979;22;20054;-78
2023/01/12 02:06:34;;;;;;;13.32;7.22;;;;;;;;;;6274911;22;20330;-78
2023/01/12 02:09:00;;;;;;;11.95;7.35;;;;;;;;;;6249225;22;20022;-78
2023/01/12 02:17:25;;;;;;;20.05;10.50;;;;;;;;;;6275901;22;20065;-78
2023/01/12 02:20:18;;;;;;;19.83;10.75;;;;;;;;;;6246120;22;20004;-79
2023/01/12 02:22:52;;;;;;;19.48;10.27;;;;;;;;;;6275754;22;20441;-78
2023/01/12 02:25:42;;;;;;;16.88;10.35;;;;;;;;;;6275474;22;20083;-78
2023/01/12 02:28:30;;;;;;;22.02;12.05;;;;;;;;;;6276061;22;20003;-78
2023/01/12 02:31:14;;;;;;;19.10;11.88;;;;;;;;;;6274275;22;20000;-80
2023/01/12 02:33:49;;;;;;;19.88;13.02;;;;;;;;;;6274101;22;20004;-78
2023/01/12 02:36:18;;;;;;;15.25;9.55;;;;;;;;;;6276003;22;20074;-78
2023/01/12 02:38:50;;;;;;;19.23;9.98;;;;;;;;;;6275380;22;20437;-78
2023/01/12 02:44:55;;;;;;;26.55;12.45;;;;;;;;;;6258129;22;20022;-79
2023/01/12 02:47:33;;;;;;;28.73;14.50;;;;;;;;;;6274732;22;20000;-79
2023/01/12 02:49:59;;;;;;;19.77;11.35;;;;;;;;;;6274195;22;19995;-79
2023/01/12 02:52:24;;;;;;;19.38;11.38;;;;;;;;;;6274903;22;20010;-78
2023/01/12 02:54:50;;;;;;;14.90;8.88;;;;;;;;;;6274457;22;20350;-77
2023/01/12 02:57:15;;;;;;;15.00;8.05;;;;;;;;;;6275275;22;19999;-79
2023/01/12 02:59:42;;;;;;;18.83;9.15;;;;;;;;;;6274930;22;20000;-78
2023/01/12 03:02:09;;;;;;;15.93;7.78;;;;;;;;;;6249530;22;20006;-78
2023/01/12 03:04:35;;;;;;;12.75;7.45;;;;;;;;;;6224185;22;20045;-79
2023/01/12 03:07:00;;;;;;;11.10;6.93;;;;;;;;;;6274891;22;20074;-78
2023/01/12 03:09:32;;;;;;;11.13;6.18;;;;;;;;;;6275446;22;20008;-79
2023/01/12 03:12:01;;;;;;;9.77;5.72;;;;;;;;;;6275363;22;20000;-78
2023/01/12 03:14:27;;;;;;;16.77;8.65;;;;;;;;;;6249045;22;20339;-79
2023/01/12 03:16:53;;;;;;;22.17;12.82;;;;;;;;;;6273857;22;20038;-78
2023/01/12 03:19:21;;;;;;;27.05;14.23;;;;;;;;;;6248360;22;20011;-78
2023/01/12 03:22:06;;;;;;;23.90;13.82;;;;;;;;;;6248367;22;19996;-78
2023/01/12 03:24:34;;;;;;;21.00;11.75;;;;;;;;;;6248204;22;20385;-78
2023/01/12 03:27:09;;;;;;;18.98;10.25;;;;;;;;;;6274061;22;20034;-78
2023/01/12 03:29:36;;;;;;;16.63;10.35;;;;;;;;;;6273665;22;20003;-77
2023/01/12 03:32:02;;;;;;;13.68;9.25;;;;;;;;;;6248621;22;20023;-78
2023/01/12 03:34:27;;;;;;;16.65;8.93;;;;;;;;;;6275457;22;20419;-78
2023/01/12 03:37:00;;;;;;;14.40;8.43;;;;;;;;;;6248199;22;20007;-78
2023/01/12 03:39:37;;;;;;;12.77;7.80;;;;;;;;;;6274029;22;20061;-78
2023/01/12 03:42:17;;;;;;;14.23;8.27;;;;;;;;;;6273428;22;20338;-78
2023/01/12 03:44:51;;;;;;;13.45;7.82;;;;;;;;;;6223077;22;20074;-78
2023/01/12 03:47:19;;;;;;;13.75;7.97;;;;;;;;;;6248545;22;19991;-77
2023/01/12 03:49:46;;;;;;;14.05;8.55;;;;;;;;;;6248421;22;20000;-78
2023/01/12 03:52:12;;;;;;;13.98;9.05;;;;;;;;;;6222851;22;20005;-77
2023/01/12 03:54:38;;;;;;;13.68;7.72;;;;;;;;;;6275303;22;20039;-78
2023/01/12 03:57:03;;;;;;;15.88;7.97;;;;;;;;;;6222756;22;20003;-78
2023/01/12 03:59:28;;;;;;;13.45;8.00;;;;;;;;;;6222679;22;20015;-78
2023/01/12 04:01:54;;;;;;;11.75;6.68;;;;;;;;;;6275184;22;20122;-78
2023/01/12 04:04:21;;;;;;;11.50;7.20;;;;;;;;;;6248668;22;20003;-78
2023/01/12 04:06:46;;;;;;;12.65;7.65;;;;;;;;;;6248311;22;20026;-78
2023/01/12 04:09:12;;;;;;;14.77;8.25;;;;;;;;;;6248596;22;20460;-77
2023/01/12 04:14:21;;;;;;;16.50;10.45;;;;;;;;;;6275447;22;20050;-78
2023/01/12 04:16:46;;;;;;;12.63;8.10;;;;;;;;;;6275990;22;20008;-78
2023/01/12 04:19:12;;;;;;;13.82;7.80;;;;;;;;;;6276438;22;20023;-77
2023/01/12 04:24:21;;;;;;;11.40;7.68;;;;;;;;;;6253646;22;20027;-78
2023/01/12 04:26:47;;;;;;;14.82;8.18;;;;;;;;;;6277294;22;19999;-78
2023/01/12 04:29:12;;;;;;;13.18;8.40;;;;;;;;;;6256681;22;20014;-77
2023/01/12 04:31:38;;;;;;;16.10;10.40;;;;;;;;;;6291819;22;20070;-79
2023/01/12 04:34:03;;;;;;;19.88;12.60;;;;;;;;;;6290993;22;20055;-78
2023/01/12 04:36:28;;;;;;;20.63;13.18;;;;;;;;;;6238877;22;20031;-79
2023/01/12 04:38:54;;;;;;;27.58;16.73;;;;;;;;;;6290003;22;20027;-80
2023/01/12 04:41:19;;;;;;;22.05;13.05;;;;;;;;;;6290978;22;19999;-78
2023/01/12 04:43:45;;;;;;;19.55;12.02;;;;;;;;;;6291095;22;20022;-78
2023/01/12 04:46:10;;;;;;;24.17;14.35;;;;;;;;;;6290701;22;20051;-78
2023/01/12 04:48:39;;;;;;;22.80;13.55;;;;;;;;;;6291198;22;20003;-78
2023/01/12 04:51:05;;;;;;;27.55;16.05;;;;;;;;;;6260813;22;19999;-78
2023/01/12 04:53:30;;;;;;;25.42;15.98;;;;;;;;;;6261281;22;20058;-78
2023/01/12 04:55:56;;;;;;;33.08;19.15;;;;;;;;;;6235899;22;20003;-78
2023/01/12 04:58:21;;;;;;;26.15;17.33;;;;;;;;;;6263522;22;20011;-78
2023/01/12 05:00:47;;;;;;;21.95;13.93;;;;;;;;;;6233476;22;20007;-78
2023/01/12 05:03:12;;;;;;;22.20;13.50;;;;;;;;;;6274934;22;20012;-77
2023/01/12 05:05:38;;;;;;;17.73;11.43;;;;;;;;;;6247832;22;20110;-78
2023/01/12 05:10:57;;;;;;;19.52;12.18;;;;;;;;;;6223547;22;20003;-78
2023/01/12 05:13:23;;;;;;;20.42;11.90;;;;;;;;;;6249472;22;20003;-78
2023/01/12 05:15:48;;;;;;;20.13;12.15;;;;;;;;;;6224548;22;20014;-77
2023/01/12 05:18:14;;;;;;;20.98;13.48;;;;;;;;;;6249458;22;20004;-77
2023/01/12 05:20:40;;;;;;;21.25;14.90;;;;;;;;;;6224127;22;19999;-78
2023/01/12 05:23:05;;;;;;;24.52;16.95;;;;;;;;;;6276318;22;20091;-77
2023/01/12 05:25:33;;;;;;;18.23;12.63;;;;;;;;;;6276531;22;20003;-77
2023/01/12 05:27:59;;;;;;;20.17;12.57;;;;;;;;;;6250554;22;20026;-77
2023/01/12 05:30:27;;;;;;;13.45;8.93;;;;;;;;;;6249688;22;20094;-77
2023/01/12 05:32:53;;;;;;;15.40;9.25;;;;;;;;;;6223373;22;20000;-78
2023/01/12 05:35:18;;;;;;;13.45;8.82;;;;;;;;;;6198962;22;20011;-88
2023/01/12 05:37:44;;;;;;;14.18;9.32;;;;;;;;;;6248683;22;20082;-86
2023/01/12 05:40:10;;;;;;;12.23;8.25;;;;;;;;;;6200287;22;19999;-86
2023/01/12 05:45:21;;;;;;;15.75;10.80;;;;;;;;;;6275611;22;20084;-86
2023/01/12 05:47:46;;;;;;;31.33;21.45;;;;;;;;;;6275150;22;20417;-86
2023/01/12 05:50:12;;;;;;;15.77;11.30;;;;;;;;;;6249509;22;20007;-86
2023/01/12 05:52:38;;;;;;;23.38;15.45;;;;;;;;;;6279861;22;20007;-86
2023/01/12 05:55:05;;;;;;;18.20;11.75;;;;;;;;;;6222374;22;20049;-85
2023/01/12 05:57:31;;;;;;;17.77;12.73;;;;;;;;;;6220847;22;20006;-85
2023/01/12 05:59:56;;;;;;;19.88;12.90;;;;;;;;;;6242946;22;20074;-86
2023/01/12 06:02:36;;;;;;;19.00;12.15;;;;;;;;;;6272782;22;20006;-87
2023/01/12 06:05:08;;;;;;;12.13;7.38;;;;;;;;;;6216626;22;20097;-85
2023/01/12 06:07:41;;;;;;;25.83;13.68;;;;;;;;;;6277173;22;20074;-85
2023/01/12 06:10:21;;;;;;;25.42;17.60;;;;;;;;;;6246897;22;20323;-86
2023/01/12 06:15:34;;;;;;;44.83;26.00;;;;;;;;;;6270194;22;20088;-85
2023/01/12 06:21:21;;;;;;;23.48;14.20;;;;;;;;;;6251601;22;20047;-81
2023/01/12 06:23:47;;;;;;;8.10;6.05;;;;;;;;;;6181881;23;20036;-80
2023/01/12 06:26:13;;;;;;;14.77;7.72;;;;;;;;;;6209075;23;20556;-79
2023/01/12 06:28:39;;;;;;;11.20;7.45;;;;;;;;;;6154790;23;20043;-77
2023/01/12 06:39:56;;;;;;;17.88;10.52;;;;;;;;;;6240655;22;20075;-82
2023/01/12 06:42:28;;;;;;;13.23;9.00;;;;;;;;;;6213641;23;20004;-81
2023/01/12 06:48:14;;;;;;;18.00;10.50;;;;;;;;;;6157257;23;20463;-79
2023/01/12 06:50:39;;;;;;;16.50;10.65;;;;;;;;;;6239920;23;20161;-79
2023/01/12 06:53:05;;;;;;;16.67;11.35;;;;;;;;;;6213257;23;20083;-80
2023/01/12 06:55:34;;;;;;;14.95;9.10;;;;;;;;;;6212154;23;20005;-80
2023/01/12 06:58:07;;;;;;;30.30;17.48;;;;;;;;;;6190414;23;20007;-79
2023/01/12 07:00:33;;;;;;;21.00;14.15;;;;;;;;;;6214140;23;20018;-79
2023/01/12 07:02:58;;;;;;;46.88;30.35;;;;;;;;;;6240434;23;20099;-79
2023/01/12 07:05:26;;;;;;;107.45;56.72;;;;;;;;;;6215580;23;20001;-79
2023/01/12 07:07:59;;;;;;;53.78;33.10;;;;;;;;;;6215176;23;20026;-79
2023/01/12 07:10:25;;;;;;;55.97;35.47;;;;;;;;;;6217645;23;20004;-79
2023/01/12 07:12:50;;;;;;;26.90;17.38;;;;;;;;;;6242707;23;20502;-81
2023/01/12 07:15:16;;;;;;;19.45;12.65;;;;;;;;;;6241312;23;20000;-79
2023/01/12 07:17:41;;;;;;;19.42;12.32;;;;;;;;;;6241914;23;20020;-79
2023/01/12 07:20:08;;;;;;;37.17;18.65;;;;;;;;;;6212795;23;20004;-79
2023/01/12 07:22:33;;;;;;;22.88;12.73;;;;;;;;;;6242107;23;20011;-80
2023/01/12 07:24:59;;;;;;;26.92;15.40;;;;;;;;;;6241907;23;20048;-79
2023/01/12 07:27:24;;;;;;;24.83;15.13;;;;;;;;;;6242040;23;20370;-80
2023/01/12 07:29:50;;;;;;;39.75;21.10;;;;;;;;;;6214286;23;20032;-80
2023/01/12 07:32:15;;;;;;;26.02;15.60;;;;;;;;;;6242770;23;20016;-80
2023/01/12 07:34:41;;;;;;;31.88;16.67;;;;;;;;;;6243281;23;20006;-79
2023/01/12 07:37:06;;;;;;;66.63;35.60;;;;;;;;;;6241855;23;20004;-79
2023/01/12 07:39:31;;;;;;;32.38;18.73;;;;;;;;;;6232110;23;20008;-80
2023/01/12 07:44:41;;;;;;;16.08;11.15;;;;;;;;;;6242600;23;20011;-79
2023/01/12 07:47:06;;;;;;;14.77;9.65;;;;;;;;;;6242255;22;20268;-79
2023/01/12 07:49:32;;;;;;;16.63;9.60;;;;;;;;;;6241626;23;20056;-80
2023/01/12 07:51:57;;;;;;;15.52;9.35;;;;;;;;;;6212969;23;20556;-79
2023/01/12 07:54:23;;;;;;;27.95;14.25;;;;;;;;;;6241341;22;20000;-79
2023/01/12 07:56:48;;;;;;;37.92;19.33;;;;;;;;;;6241177;23;20352;-81
2023/01/12 07:59:14;;;;;;;33.15;16.70;;;;;;;;;;6241939;23;20007;-78
2023/01/12 08:01:39;;;;;;;28.50;14.82;;;;;;;;;;6242001;22;20040;-80
2023/01/12 08:04:05;;;;;;;47.15;22.88;;;;;;;;;;6244778;23;20008;-79
2023/01/12 08:06:31;;;;;;;22.95;13.15;;;;;;;;;;6240333;22;20004;-79
2023/01/12 08:08:56;;;;;;;24.35;13.23;;;;;;;;;;6241350;22;20327;-79
2023/01/12 08:11:22;;;;;;;26.45;14.32;;;;;;;;;;6239473;23;20007;-80
2023/01/12 08:13:47;;;;;;;83.35;33.17;;;;;;;;;;6241186;22;20159;-78
2023/01/12 08:16:19;;;;;;;31.38;15.20;;;;;;;;;;6239588;23;20035;-80
2023/01/12 08:18:57;;;;;;;31.95;16.63;;;;;;;;;;6239597;23;20007;-79
2023/01/12 08:21:24;;;;;;;40.33;19.40;;;;;;;;;;6239797;23;20431;-80
2023/01/12 08:23:52;;;;;;;44.50;25.52;;;;;;;;;;6242292;22;20000;-79
2023/01/12 08:26:22;;;;;;;38.97;19.33;;;;;;;;;;6215880;23;20050;-79
2023/01/12 08:28:53;;;;;;;21.83;13.20;;;;;;;;;;6241268;23;20015;-79
2023/01/12 08:31:18;;;;;;;18.40;10.00;;;;;;;;;;6216161;23;20016;-80
2023/01/12 08:33:44;;;;;;;14.57;9.18;;;;;;;;;;6239066;23;20004;-79
2023/01/12 08:36:12;;;;;;;34.88;16.92;;;;;;;;;;6241003;23;20015;-80
2023/01/12 08:38:38;;;;;;;27.27;14.43;;;;;;;;;;6241471;23;20004;-79
2023/01/12 08:44:07;;;;;;;45.95;21.23;;;;;;;;;;6242344;23;20015;-80
2023/01/12 08:46:36;;;;;;;25.80;11.65;;;;;;;;;;6241929;22;20444;-79
2023/01/12 08:49:03;;;;;;;15.48;8.73;;;;;;;;;;6241082;23;20004;-79
2023/01/12 08:51:29;;;;;;;13.70;8.00;;;;;;;;;;6217789;23;20015;-78
2023/01/12 08:53:54;;;;;;;16.75;9.77;;;;;;;;;;6242269;22;20016;-80
2023/01/12 08:56:20;;;;;;;17.95;10.30;;;;;;;;;;6240792;22;20031;-78
2023/01/12 08:58:45;;;;;;;20.92;12.18;;;;;;;;;;6237225;23;20031;-78
2023/01/12 09:01:12;;;;;;;13.05;7.60;;;;;;;;;;6237422;22;20111;-79
2023/01/12 09:03:38;;;;;;;11.70;7.43;;;;;;;;;;6234773;23;20004;-78
2023/01/12 09:06:09;;;;;;;18.30;10.80;;;;;;;;;;6236285;22;20058;-79
2023/01/12 09:08:34;;;;;;;62.58;36.55;;;;;;;;;;6236178;22;20015;-80
2023/01/12 09:11:03;;;;;;;34.20;20.25;;;;;;;;;;6237845;22;20000;-78
2023/01/12 09:13:29;;;;;;;18.38;11.82;;;;;;;;;;6237803;22;20008;-79
2023/01/12 09:15:54;;;;;;;14.07;9.45;;;;;;;;;;6236747;23;20255;-78
2023/01/12 09:18:20;;;;;;;13.90;8.15;;;;;;;;;;6238488;23;20074;-79
2023/01/12 09:20:45;;;;;;;16.60;10.23;;;;;;;;;;6237804;23;19996;-79
2023/01/12 09:23:11;;;;;;;20.80;10.75;;;;;;;;;;6238621;23;20034;-79
2023/01/12 09:25:36;;;;;;;25.70;13.93;;;;;;;;;;6238144;23;20008;-79
2023/01/12 09:28:02;;;;;;;18.77;11.50;;;;;;;;;;6238574;23;20034;-79
2023/01/12 09:30:27;;;;;;;13.52;8.57;;;;;;;;;;6240883;22;19996;-78
2023/01/12 09:32:55;;;;;;;14.20;9.80;;;;;;;;;;6241369;22;20423;-79
2023/01/12 09:35:22;;;;;;;16.17;8.05;;;;;;;;;;6238742;23;20003;-79
2023/01/12 09:37:47;;;;;;;12.75;8.80;;;;;;;;;;6238468;23;20015;-80
2023/01/12 09:40:13;;;;;;;12.90;8.57;;;;;;;;;;6214463;23;20008;-80
2023/01/12 09:48:08;;;;;;;17.50;9.68;;;;;;;;;;6220725;23;20151;-80
2023/01/12 09:50:39;;;;;;;14.02;7.32;;;;;;;;;;6191916;23;20023;-77
2023/01/12 09:53:17;;;;;;;16.30;9.55;;;;;;;;;;6189097;23;20538;-78
2023/01/12 09:56:01;;;;;;;22.15;10.73;;;;;;;;;;6162867;23;20011;-79
2023/01/12 09:58:51;;;;;;;17.08;10.10;;;;;;;;;;6241638;23;20073;-78
2023/01/12 10:01:18;;;;;;;16.58;10.57;;;;;;;;;;6241857;23;20027;-81
2023/01/12 10:03:43;;;;;;;18.73;11.15;;;;;;;;;;6190503;23;20012;-77
2023/01/12 10:06:14;;;;;;;15.50;9.38;;;;;;;;;;6214997;23;20087;-77
2023/01/12 10:08:48;;;;;;;16.23;9.02;;;;;;;;;;6214540;23;20004;-81
2023/01/12 10:11:45;;;;;;;17.70;9.65;;;;;;;;;;6241554;23;20080;-79
2023/01/12 10:14:32;;;;;;;17.88;10.48;;;;;;;;;;6243069;23;20019;-79
2023/01/12 10:17:29;;;;;;;15.18;9.43;;;;;;;;;;6242972;23;20007;-79
2023/01/12 10:20:10;;;;;;;12.98;8.02;;;;;;;;;;6241565;23;20015;-78
2023/01/12 10:22:54;;;;;;;;;;;;;;;;;;6214623;23;20035;-79
2023/01/12 10:25:40;;;;;;;13.68;8.50;;;;;;;;;;6242069;23;19961;-78
2023/01/12 10:28:16;;;;;;;16.52;9.85;;;;;;;;;;6241774;23;20351;-79
2023/01/12 10:30:42;;;;;;;17.92;10.43;;;;;;;;;;6242924;23;20004;-79
2023/01/12 10:33:24;;;;;;;20.08;10.48;;;;;;;;;;6218096;23;20008;-77
2023/01/12 10:35:58;;;;;;;19.33;11.02;;;;;;;;;;6217238;23;20003;-77
2023/01/12 10:39:02;;;;;;;25.05;14.25;;;;;;;;;;6240277;23;20042;-79
2023/01/12 10:41:28;;;;;;;22.80;13.75;;;;;;;;;;6067695;23;20363;-80
2023/01/12 10:43:59;;;;;;;25.48;14.77;;;;;;;;;;6215862;23;20343;-80
2023/01/12 10:46:27;;;;;;;20.77;13.15;;;;;;;;;;6242114;23;20022;-80
2023/01/12 10:48:53;;;;;;;18.65;11.70;;;;;;;;;;6239057;23;20008;-78
2023/01/12 10:51:25;;;;;;;18.05;11.65;;;;;;;;;;6235391;23;21002;-79
2023/01/12 10:54:18;;;;;;;17.60;12.00;;;;;;;;;;6237870;23;20004;-81
2023/01/12 10:57:10;;;;;;;18.73;12.05;;;;;;;;;;6241921;23;20649;-81
2023/01/12 10:59:37;;;;;;;20.73;13.07;;;;;;;;;;6241847;23;20000;-80
2023/01/12 11:02:07;;;;;;;19.13;10.85;;;;;;;;;;6191481;23;20019;-78
2023/01/12 11:04:43;;;;;;;18.10;11.47;;;;;;;;;;6243528;23;20001;-79
2023/01/12 11:07:11;;;;;;;16.58;10.02;;;;;;;;;;6213452;23;20012;-78
2023/01/12 11:09:37;;;;;;;17.75;10.60;;;;;;;;;;6236796;23;20030;-81
2023/01/12 11:12:05;;;;;;;19.10;11.70;;;;;;;;;;6240597;23;20416;-81
2023/01/12 11:14:36;;;;;;;15.77;9.98;;;;;;;;;;6213411;23;20043;-81
2023/01/12 11:17:10;;;;;;;24.60;12.48;;;;;;;;;;6241207;23;20008;-80
2023/01/12 11:19:44;;;;;;;27.63;15.82;;;;;;;;;;6216607;23;20007;-86
2023/01/12 11:22:27;;;;;;;24.67;15.70;;;;;;;;;;6223777;23;20056;-82
2023/01/12 11:25:02;;;;;;;29.35;17.00;;;;;;;;;;6172685;23;20038;-85
2023/01/12 11:27:37;;;;;;;27.05;17.25;;;;;;;;;;6243991;23;20004;-83
2023/01/12 11:30:14;;;;;;;29.40;16.80;;;;;;;;;;6192171;23;20000;-85
2023/01/12 11:32:55;;;;;;;24.92;15.25;;;;;;;;;;6215973;23;20042;-86
2023/01/12 11:35:36;;;;;;;;;;;;;;;;;;6218455;23;20019;-80
2023/01/12 11:38:09;;;;;;;;;;;;;;;;;;6189919;23;19995;-83
2023/01/12 11:40:36;;;;;;;23.45;13.70;;;;;;;;;;6187180;23;19914;-80
2023/01/12 11:46:00;;;;;;;26.75;16.15;;;;;;;;;;6217633;23;20019;-89
2023/01/12 11:48:31;;;;;;;40.53;20.10;;;;;;;;;;6188299;23;20058;-85
2023/01/12 11:50:57;;;;;;;25.38;14.82;;;;;;;;;;6188296;23;20000;-82
2023/01/12 11:53:23;;;;;;;29.27;17.33;;;;;;;;;;6239186;23;20008;-80
2023/01/12 11:56:39;;;;;;;26.08;15.90;;;;;;;;;;6238863;23;20615;-84
2023/01/12 11:59:05;;;;;;;26.73;15.10;;;;;;;;;;6153971;23;20004;-86
2023/01/12 12:01:39;;;;;;;29.92;15.60;;;;;;;;;;6214026;23;20027;-86
2023/01/12 12:04:28;;;;;;;25.55;15.65;;;;;;;;;;6188667;23;20008;-82
2023/01/12 12:07:31;;;;;;;23.55;14.75;;;;;;;;;;6241236;23;20015;-85
2023/01/12 12:10:17;;;;;;;20.50;12.32;;;;;;;;;;6245812;23;20003;-84
2023/01/12 12:13:08;;;;;;;23.88;12.90;;;;;;;;;;6219938;23;20030;-83
2023/01/12 12:15:38;;;;;;;20.50;12.27;;;;;;;;;;6217694;23;20319;-83
2023/01/12 12:18:16;;;;;;;26.08;13.55;;;;;;;;;;6217207;23;20004;-83
2023/01/12 12:21:05;;;;;;;24.92;14.32;;;;;;;;;;6193335;23;20008;-81
2023/01/12 12:23:53;;;;;;;22.73;14.10;;;;;;;;;;6174500;23;20004;-82
2023/01/12 12:26:35;;;;;;;25.58;13.90;;;;;;;;;;6213838;23;20078;-85
2023/01/12 12:29:19;;;;;;;25.33;14.85;;;;;;;;;;6213458;23;20187;-84
2023/01/12 12:31:54;;;;;;;26.40;16.65;;;;;;;;;;6240412;23;20015;-82
2023/01/12 12:34:54;;;;;;;28.08;17.48;;;;;;;;;;6212548;23;20065;-84
2023/01/12 12:37:40;;;;;;;26.75;15.00;;;;;;;;;;6237115;23;20012;-82
2023/01/12 12:40:14;;;;;;;22.65;13.80;;;;;;;;;;6235938;23;20363;-83
2023/01/12 12:46:04;;;;;;;34.42;17.58;;;;;;;;;;6239500;23;20015;-83
2023/01/12 12:48:47;;;;;;;26.45;16.15;;;;;;;;;;6239733;23;20106;-82
2023/01/12 12:51:12;;;;;;;27.23;15.55;;;;;;;;;;6188591;23;20423;-83
2023/01/12 12:53:40;;;;;;;24.35;15.07;;;;;;;;;;6188199;23;20331;-83
2023/01/12 12:56:07;;;;;;;26.13;14.63;;;;;;;;;;6187073;23;20000;-83
2023/01/12 12:59:02;;;;;;;22.55;14.40;;;;;;;;;;6211902;23;20004;-82
2023/01/12 13:01:41;;;;;;;23.63;13.93;;;;;;;;;;6179584;23;20023;-82
2023/01/12 13:04:07;;;;;;;17.60;11.73;;;;;;;;;;6240294;23;20015;-82
2023/01/12 13:06:46;;;;;;;15.60;10.82;;;;;;;;;;6165624;23;20004;-82
2023/01/12 13:09:14;;;;;;;17.77;10.47;;;;;;;;;;6192853;23;20419;-82
2023/01/12 13:11:58;;;;;;;19.35;11.05;;;;;;;;;;6243973;23;20042;-82
2023/01/12 13:14:27;;;;;;;17.08;9.85;;;;;;;;;;6244043;23;20012;-82
2023/01/12 13:16:53;;;;;;;17.65;11.02;;;;;;;;;;6244071;23;20316;-82
2023/01/12 13:19:33;;;;;;;13.80;9.23;;;;;;;;;;6217917;23;20059;-83
2023/01/12 13:22:16;;;;;;;15.93;10.15;;;;;;;;;;6217433;23;20007;-83
2023/01/12 13:24:41;;;;;;;13.70;8.95;;;;;;;;;;6196270;23;20032;-84
2023/01/12 13:27:44;;;;;;;16.08;9.98;;;;;;;;;;6217871;23;20390;-84
2023/01/12 13:30:34;;;;;;;15.82;9.13;;;;;;;;;;6243587;23;20050;-83
2023/01/12 13:33:14;;;;;;;19.98;12.48;;;;;;;;;;6222962;23;20008;-83
2023/01/12 13:35:43;;;;;;;19.40;10.55;;;;;;;;;;6246090;23;20420;-83
2023/01/12 13:38:35;;;;;;;17.58;9.93;;;;;;;;;;6248528;23;20012;-84
2023/01/12 13:41:16;;;;;;;14.05;8.02;;;;;;;;;;6248822;23;20004;-82
2023/01/12 13:43:56;;;;;;;14.18;8.15;;;;;;;;;;6193968;23;20012;-83
2023/01/12 13:46:24;;;;;;;15.55;8.70;;;;;;;;;;6193602;23;20462;-83
2023/01/12 13:48:51;;;;;;;16.73;9.82;;;;;;;;;;6194617;23;20022;-86
2023/01/12 13:51:43;;;;;;;16.98;10.57;;;;;;;;;;6193542;23;20035;-80
2023/01/12 13:54:13;;;;;;;12.77;8.63;;;;;;;;;;6217229;23;20058;-82
2023/01/12 13:56:39;;;;;;;10.57;6.72;;;;;;;;;;6217598;23;20015;-83
2023/01/12 13:59:06;;;;;;;14.90;8.25;;;;;;;;;;6243861;23;19992;-84
2023/01/12 14:01:31;;;;;;;14.60;8.88;;;;;;;;;;6243663;23;20079;-83
2023/01/12 14:04:01;;;;;;;18.48;11.25;;;;;;;;;;6244185;23;20004;-84
2023/01/12 14:06:32;;;;;;;19.98;11.75;;;;;;;;;;6216151;23;20501;-82
2023/01/12 14:09:24;;;;;;;13.35;9.30;;;;;;;;;;6217176;23;19996;-82
2023/01/12 14:12:13;;;;;;;14.30;7.90;;;;;;;;;;6184483;23;20019;-82
2023/01/12 14:17:48;;;;;;;17.95;9.43;;;;;;;;;;6220895;23;20065;-82
2023/01/12 14:20:26;;;;;;;19.77;10.95;;;;;;;;;;6198419;23;20007;-81
2023/01/12 14:23:28;;;;;;;15.75;9.88;;;;;;;;;;6217209;23;20004;-82
2023/01/12 14:26:09;;;;;;;14.10;9.82;;;;;;;;;;6069049;23;20013;-82
2023/01/12 14:28:35;;;;;;;15.90;9.63;;;;;;;;;;6230793;23;20008;-82
2023/01/12 14:31:00;;;;;;;29.88;17.60;;;;;;;;;;6167550;23;20004;-82
2023/01/12 14:33:28;;;;;;;22.40;14.25;;;;;;;;;;6216115;23;20066;-82
2023/01/12 14:35:55;;;;;;;16.27;10.02;;;;;;;;;;6193256;23;20020;-83
2023/01/12 14:38:22;;;;;;;20.75;9.32;;;;;;;;;;6196743;23;20316;-82
2023/01/12 14:40:52;;;;;;;18.33;10.48;;;;;;;;;;6193803;23;20131;-83
2023/01/12 14:46:23;;;;;;;21.95;12.05;;;;;;;;;;6244641;23;20239;-82
2023/01/12 14:49:02;;;;;;;17.50;10.32;;;;;;;;;;6244934;22;20023;-82
2023/01/12 14:51:35;;;;;;;13.77;9.30;;;;;;;;;;6216967;23;20000;-82
2023/01/12 14:54:04;;;;;;;18.85;10.57;;;;;;;;;;6243705;23;20055;-81
2023/01/12 14:56:41;;;;;;;19.33;11.65;;;;;;;;;;6243492;23;20031;-82
2023/01/12 14:59:29;;;;;;;26.70;17.73;;;;;;;;;;6217872;23;20004;-82
2023/01/12 15:02:13;;;;;;;21.95;13.43;;;;;;;;;;6217897;23;20065;-81
2023/01/12 15:05:02;;;;;;;21.00;13.13;;;;;;;;;;6244665;23;20003;-82
2023/01/12 15:07:52;;;;;;;22.08;13.68;;;;;;;;;;6218307;23;20343;-81
2023/01/12 15:10:17;;;;;;;;;;;;;;;;;;6223880;23;20031;-81
2023/01/12 15:12:48;;;;;;;20.70;10.90;;;;;;;;;;6242828;23;19957;-82
2023/01/12 15:15:14;;;;;;;24.98;13.65;;;;;;;;;;6215642;23;20018;-82
2023/01/12 15:25:34;;;;;;;37.20;17.98;;;;;;;;;;6244954;23;20457;-83
2023/01/12 15:25:57;;;;;;;36.53;18.63;;;;;;;;;;6244303;23;20388;-83
2023/01/12 15:28:23;;;;;;;30.27;16.17;;;;;;;;;;6244387;23;20035;-83
2023/01/12 15:30:48;;;;;;;27.70;15.77;;;;;;;;;;6242814;23;20054;-83
2023/01/12 15:33:15;;;;;;;31.42;17.05;;;;;;;;;;6243155;23;20008;-83
2023/01/12 15:35:43;;;;;;;30.20;16.02;;;;;;;;;;6244587;22;19997;-83
2023/01/12 15:38:08;;;;;;;28.75;16.02;;;;;;;;;;6217604;23;20122;-82
2023/01/12 15:40:34;;;;;;;33.25;16.55;;;;;;;;;;6243557;23;20331;-83
2023/01/12 15:43:03;;;;;;;34.70;17.90;;;;;;;;;;6243877;23;20000;-83
2023/01/12 15:45:33;;;;;;;31.35;17.35;;;;;;;;;;6217345;23;20082;-82
2023/01/12 15:47:59;;;;;;;31.58;16.73;;;;;;;;;;6218312;23;20086;-82
2023/01/12 15:50:25;;;;;;;51.38;23.98;;;;;;;;;;6242800;23;20032;-82
2023/01/12 15:52:50;;;;;;;62.50;28.17;;;;;;;;;;6216882;23;20011;-82
2023/01/12 15:55:17;;;;;;;60.22;26.98;;;;;;;;;;6242197;23;20000;-82
2023/01/12 15:57:42;;;;;;;47.03;22.42;;;;;;;;;;6244318;22;20000;-82